Alma, CO

12:37 AM MDT on August 31, 2014 (GMT -0600)
Valley of the Sun | Change Station
CLOSE
Current Station
Personal Weather Station
Location: Fairplay, CO
Elevation: 11000 ft
Nearby Weather Stations

Elev 11000 ft 39.24 °N, 106.11 °W | Updated 45 minutes ago

Clear
Clear
43.6 °F
Feels Like 44 °F
N
1.0
Wind Variable Wind from WSW
Gusts 1.0 mph

Today
High -- | Low -- °F
--% Chance of Precip.
Yesterday
High -- | Low -- °F
Precip. -- in
6:31 AM 7:36 PM
Waxing Crescent, 28% visible
Pressure 30.41 in
Visibility 10.0 miles
Clouds Clear
Windchill 44 °F
Dew Point 31 °F
Humidity 61%
Rainfall 0.01 in
Snow Depth Not available.
UV 0 out of 12
Pollen 10.50 out of 12
Air Quality Not available.
Flu Activity Not available.
METAR KCCU 310616Z AUTO 17018G28KT 150V210 10SM CLR 11/M01 A3041 RMK AO2 LTG DSNT NW

More Conditions Fewer Conditions

Pressure 30.41 in
Visibility 10.0 miles
Clouds Clear
Windchill 44 °F
Dew Point 31 °F
Humidity 61%
Rainfall 0.01 in
Snow Depth Not available.
UV 0 out of 12
Pollen 10.50 out of 12
Air Quality Not available.
Flu Activity Not available.
METAR KCCU 310616Z AUTO 17018G28KT 150V210 10SM CLR 11/M01 A3041 RMK AO2 LTG DSNT NW

More Conditions Fewer Conditions

Nowcast | as of 10:35 PM MDT on August 30, 2014

Isolated light rain showers will move across the mountains of north central Colorado through 1 am...mainly north of Interstate 70. A thunderstorm is possible near the Wyoming border.

×

10-Day Weather Forecast

Almanac

Astronomy

Aug. 31, 2014 Rise Set
Actual Time 6:31 AM MDT 7:36 PM MDT
Civil Twilight 6:04 AM MDT 8:03 PM MDT
Nautical Twilight 5:31 AM MDT 8:36 PM MDT
Astronomical Twilight 4:57 AM MDT 9:10 PM MDT
Moon 12:18 PM MDT 10:55 PM MDT
Length of Visible Light 13h 59m
Length of Day
13h 04m
Tomorrow will be 2m 26s shorter.
Waxing Crescent, 28% of the Moon is Illuminated
Today
Waxing Crescent
Sep 2
First Quarter
Sep 8
Full
Sep 15
Last Quarter
Sep 24
New

Today's Extremes

State Highs State Lows

Community

WunderPhotos

Upload Photos

1,748,801 photos uploaded!

Nearby

Snow Depth

Station Depth Elevation
Buckskin Joe 0 in 11150 ft
Hoosier Pass 0 in 11400 ft
Fremont Pass 0 in 11400 ft
Michigan Creek 0 in 10600 ft
Copper Mountain 0 in 10500 ft

Earthquake Activity

City Distance Mag. Time & Date
No recent earthquake activity has been reported nearby.
Minimum magnitude displayed is 2.5.

Coastal Water Temperatures

Place Temperature
No Stations Reporting

Nearby Weather Stations